createdAt,value
2018-11-25T00:00:25.748Z,80.94
2018-11-25T00:02:56.176Z,81.12
2018-11-25T00:05:26.518Z,82.05
2018-11-25T00:07:57.129Z,80.93
2018-11-25T00:10:27.832Z,81.41
2018-11-25T00:12:58.620Z,80.97
2018-11-25T00:15:29.278Z,81.99
2018-11-25T00:17:59.928Z,81.18
2018-11-25T00:20:30.586Z,81.12
2018-11-25T00:23:01.186Z,81.89
2018-11-25T00:25:32.260Z,81.03
2018-11-25T00:28:02.972Z,81.07
2018-11-25T00:30:33.638Z,81.77
2018-11-25T00:33:04.327Z,81.09
2018-11-25T00:35:34.933Z,80.89
2018-11-25T00:38:06.113Z,79.96
2018-11-25T00:40:36.688Z,80.84
2018-11-25T00:43:07.800Z,81.96
2018-11-25T00:45:38.412Z,81.03
2018-11-25T00:48:09.120Z,80.44
2018-11-25T00:50:39.800Z,81.32
2018-11-25T00:53:10.930Z,81.67
2018-11-25T00:55:41.756Z,81.68
2018-11-25T00:58:12.701Z,80.49
2018-11-25T01:00:43.321Z,81.07
2018-11-25T01:03:13.961Z,80.91
2018-11-25T01:05:45.304Z,79.60
2018-11-25T01:08:15.884Z,80.41
2018-11-25T01:10:46.576Z,79.83
2018-11-25T01:13:17.208Z,80.13
2018-11-25T01:15:47.933Z,80.58
2018-11-25T01:18:18.563Z,80.73
2018-11-25T01:20:49.172Z,79.75
2018-11-25T01:23:19.856Z,80.22
2018-11-25T01:25:50.471Z,79.37
2018-11-25T01:28:21.613Z,80.34
2018-11-25T01:30:52.484Z,80.64
2018-11-25T01:33:23.156Z,81.17
2018-11-25T01:35:54.240Z,80.49
2018-11-25T01:38:25.129Z,80.68
2018-11-25T01:40:56.108Z,80.90
2018-11-25T01:43:26.692Z,80.22
2018-11-25T01:45:57.591Z,79.98
2018-11-25T01:48:28.241Z,80.28
2018-11-25T01:50:58.828Z,80.02
2018-11-25T01:53:30.743Z,81.23
2018-11-25T01:56:01.289Z,81.35
2018-11-25T01:58:31.973Z,81.14
2018-11-25T02:01:02.658Z,80.36
2018-11-25T02:03:33.903Z,80.03
2018-11-25T02:06:04.836Z,80.38
2018-11-25T02:08:35.472Z,80.81
2018-11-25T02:11:06.321Z,80.54
2018-11-25T02:13:37.560Z,81.17
2018-11-25T02:16:08.632Z,80.10
2018-11-25T02:18:39.493Z,79.68
2018-11-25T02:21:10.378Z,79.83
2018-11-25T02:23:41.256Z,79.93
2018-11-25T02:26:12.548Z,79.66
2018-11-25T02:28:43.186Z,80.07
2018-11-25T02:31:13.797Z,79.90
2018-11-25T02:33:44.731Z,80.91
2018-11-25T02:36:15.390Z,80.32
2018-11-25T02:38:46.230Z,81.07
2018-11-25T02:41:17.917Z,80.90
2018-11-25T02:43:48.896Z,81.09
2018-11-25T02:46:19.929Z,79.31
2018-11-25T02:48:51.691Z,80.05
2018-11-25T02:51:22.979Z,80.70
2018-11-25T02:53:53.887Z,81.33
2018-11-25T02:56:25.413Z,81.31
2018-11-25T02:58:56.395Z,80.88
2018-11-25T03:01:27.345Z,81.05
2018-11-25T03:03:58.572Z,81.50
2018-11-25T03:06:29.605Z,81.41
2018-11-25T03:09:00.788Z,81.93
2018-11-25T03:11:31.372Z,81.25
2018-11-25T03:14:02.230Z,81.60
2018-11-25T03:16:33.165Z,80.90
2018-11-25T03:19:04.533Z,80.97
2018-11-25T03:21:35.437Z,80.93
2018-11-25T03:24:07.292Z,80.96
2018-11-25T03:26:38.237Z,80.81
2018-11-25T03:29:09.382Z,81.23
2018-11-25T03:31:40.326Z,80.97
2018-11-25T03:34:11.249Z,80.83
2018-11-25T03:36:41.889Z,81.19
2018-11-25T03:39:12.832Z,81.57
2018-11-25T03:41:43.773Z,81.40
2018-11-25T03:44:14.792Z,81.70
2018-11-25T03:46:45.788Z,81.79
2018-11-25T03:49:16.829Z,81.32
2018-11-25T03:51:47.430Z,81.77
2018-11-25T03:54:18.668Z,81.61
2018-11-25T03:56:49.586Z,82.00
2018-11-25T03:59:20.541Z,81.12
2018-11-25T04:01:51.541Z,79.81
2018-11-25T04:04:22.417Z,79.73
2018-11-25T04:06:53.536Z,78.67
2018-11-25T04:09:24.500Z,78.69
2018-11-25T04:11:55.526Z,79.53
2018-11-25T04:14:26.544Z,80.43
2018-11-25T04:16:57.721Z,80.60
2018-11-25T04:19:28.653Z,81.44
2018-11-25T04:21:59.485Z,81.43
2018-11-25T04:24:30.417Z,81.10
2018-11-25T04:27:01.870Z,81.01
2018-11-25T04:29:32.805Z,80.19
2018-11-25T04:32:04.788Z,79.84
2018-11-25T04:34:35.840Z,79.73
2018-11-25T04:37:07.181Z,80.12
2018-11-25T04:39:38.173Z,80.50
2018-11-25T04:42:09.053Z,80.13
2018-11-25T04:44:39.964Z,81.56
2018-11-25T04:47:10.914Z,81.36
2018-11-25T04:49:42.030Z,81.83
2018-11-25T04:52:13.032Z,82.13
2018-11-25T04:54:43.976Z,81.80
2018-11-25T04:57:15.021Z,81.60
2018-11-25T04:59:46.128Z,81.38
2018-11-25T05:02:17.324Z,80.31
2018-11-25T05:04:48.945Z,80.81
2018-11-25T05:07:19.833Z,81.19
2018-11-25T05:09:51.214Z,79.99
2018-11-25T05:12:22.133Z,80.37
2018-11-25T05:14:53.020Z,80.04
2018-11-25T05:17:23.921Z,80.46
2018-11-25T05:19:54.833Z,80.81
2018-11-25T05:22:25.683Z,80.73
2018-11-25T05:24:57.272Z,81.27
2018-11-25T05:27:28.476Z,81.29
2018-11-25T05:29:59.409Z,81.12
2018-11-25T05:32:30.281Z,82.10
2018-11-25T05:35:01.148Z,82.36
2018-11-25T05:37:33.123Z,81.92
2018-11-25T05:40:04.676Z,81.64
2018-11-25T05:42:35.532Z,82.20
2018-11-25T05:45:10.696Z,81.66
2018-11-25T05:47:41.637Z,81.80
2018-11-25T05:50:14.417Z,82.09
2018-11-25T05:52:45.312Z,81.73
2018-11-25T05:55:16.295Z,82.61
2018-11-25T05:57:47.714Z,81.54
2018-11-25T06:00:22.921Z,81.28
2018-11-25T06:02:54.024Z,80.97
2018-11-25T06:05:24.943Z,82.05
2018-11-25T06:07:55.977Z,81.90
2018-11-25T06:10:27.496Z,81.60
2018-11-25T06:12:58.368Z,82.70
2018-11-25T06:15:29.264Z,82.32
2018-11-25T06:18:00.141Z,82.20
2018-11-25T06:20:31.060Z,82.55
2018-11-25T06:23:01.914Z,82.06
2018-11-25T06:25:32.832Z,82.81
2018-11-25T06:28:03.712Z,82.98
2018-11-25T06:30:34.805Z,83.23
2018-11-25T06:33:06.383Z,83.10
2018-11-25T06:35:37.308Z,83.20
2018-11-25T06:38:08.226Z,82.78
2018-11-25T06:40:39.081Z,82.40
2018-11-25T06:43:10.035Z,83.35
2018-11-25T06:45:41.216Z,83.30
2018-11-25T06:48:12.013Z,82.40
2018-11-25T06:50:43.258Z,83.15
2018-11-25T06:53:14.182Z,82.79
2018-11-25T06:55:45.038Z,82.14
2018-11-25T06:58:16.734Z,82.67
2018-11-25T07:00:48.781Z,82.54
2018-11-25T07:03:19.617Z,81.73
2018-11-25T07:05:50.546Z,81.63
2018-11-25T07:08:21.658Z,81.44
2018-11-25T07:10:52.600Z,82.21
2018-11-25T07:13:23.617Z,81.56
2018-11-25T07:15:54.460Z,82.03
2018-11-25T07:18:25.535Z,82.12
2018-11-25T07:20:56.485Z,82.23
2018-11-25T07:23:28.308Z,82.48
2018-11-25T07:25:59.235Z,82.07
2018-11-25T07:28:30.249Z,82.64
2018-11-25T07:31:01.953Z,82.72
2018-11-25T07:33:32.857Z,81.96
2018-11-25T07:36:04.101Z,81.58
2018-11-25T07:38:34.961Z,81.66
2018-11-25T07:41:06.139Z,80.97
2018-11-25T07:43:37.029Z,80.93
2018-11-25T07:46:08.346Z,81.32
2018-11-25T07:48:39.264Z,82.08
2018-11-25T07:51:10.313Z,81.88
2018-11-25T07:53:41.160Z,82.13
2018-11-25T07:56:12.117Z,81.72
2018-11-25T07:58:43.670Z,81.99
2018-11-25T08:01:14.623Z,81.88
2018-11-25T08:03:46.499Z,81.35
2018-11-25T08:06:17.629Z,81.67
2018-11-25T08:08:48.643Z,81.35
2018-11-25T08:11:19.509Z,80.90
2018-11-25T08:13:50.765Z,80.37
2018-11-25T08:16:21.704Z,80.23
2018-11-25T08:18:53.069Z,81.37
2018-11-25T08:21:24.469Z,80.60
2018-11-25T08:23:55.655Z,80.81
2018-11-25T08:26:26.568Z,80.02
2018-11-25T08:28:57.507Z,80.26
2018-11-25T08:31:28.393Z,80.53
2018-11-25T08:33:59.280Z,80.85
2018-11-25T08:36:30.643Z,80.61
2018-11-25T08:39:01.560Z,80.60
2018-11-25T08:41:32.184Z,81.09
2018-11-25T08:44:03.151Z,80.76
2018-11-25T08:46:34.124Z,80.07
2018-11-25T08:49:07.003Z,79.56
2018-11-25T08:51:37.654Z,78.96
2018-11-25T08:54:08.720Z,78.45
2018-11-25T08:56:40.056Z,78.79
2018-11-25T08:59:10.920Z,79.25
2018-11-25T09:01:41.865Z,77.83
2018-11-25T09:04:12.749Z,78.80
2018-11-25T09:06:43.725Z,78.96
2018-11-25T09:09:15.035Z,78.92
2018-11-25T09:11:46.178Z,77.82
2018-11-25T09:14:17.160Z,78.27
2018-11-25T09:16:48.002Z,78.77
2018-11-25T09:19:18.863Z,78.18
2018-11-25T09:21:49.572Z,77.76
2018-11-25T09:24:20.178Z,78.41
2018-11-25T09:26:51.039Z,78.53
2018-11-25T09:29:22.029Z,78.17
2018-11-25T09:31:52.807Z,78.17
2018-11-25T09:34:24.804Z,78.05
2018-11-25T09:36:55.574Z,76.67
2018-11-25T09:39:26.201Z,76.46
2018-11-25T09:41:57.277Z,76.51
2018-11-25T09:44:28.418Z,78.07
2018-11-25T09:46:59.531Z,77.44
2018-11-25T09:49:30.321Z,76.88
2018-11-25T09:52:00.968Z,76.57
2018-11-25T09:54:31.544Z,75.42
2018-11-25T09:57:03.353Z,74.71
2018-11-25T09:59:34.068Z,74.39
2018-11-25T10:02:06.341Z,74.40
2018-11-25T10:04:37.965Z,74.91
2018-11-25T10:07:08.581Z,76.11
2018-11-25T10:09:39.365Z,75.93
2018-11-25T10:12:10.097Z,75.51
2018-11-25T10:14:40.816Z,74.85
2018-11-25T10:17:11.410Z,73.29
2018-11-25T10:19:42.127Z,73.89
2018-11-25T10:22:12.896Z,73.49
2018-11-25T10:24:43.780Z,73.11
2018-11-25T10:27:14.383Z,73.06
2018-11-25T10:29:44.993Z,73.92
2018-11-25T10:32:15.593Z,74.14
2018-11-25T10:34:46.204Z,72.21
2018-11-25T10:37:16.876Z,72.66
2018-11-25T10:39:47.489Z,71.63
2018-11-25T10:42:18.147Z,71.83
2018-11-25T10:44:51.816Z,71.13
2018-11-25T10:47:22.839Z,71.76
2018-11-25T10:49:53.524Z,71.07
2018-11-25T10:52:24.269Z,69.68
2018-11-25T10:54:54.906Z,69.20
2018-11-25T10:57:25.527Z,70.04
2018-11-25T10:59:56.352Z,67.88
2018-11-25T11:02:32.154Z,68.49
2018-11-25T11:05:05.077Z,68.48
2018-11-25T11:07:41.605Z,67.52
2018-11-25T11:10:12.637Z,66.42
2018-11-25T11:12:43.458Z,66.86
2018-11-25T11:15:14.194Z,65.98
2018-11-25T11:17:44.876Z,66.64
2018-11-25T11:20:16.132Z,66.18
2018-11-25T11:22:46.901Z,66.87
2018-11-25T11:25:17.763Z,66.57
2018-11-25T11:27:50.849Z,66.81
2018-11-25T11:30:21.649Z,67.05
2018-11-25T11:32:52.533Z,66.00
2018-11-25T11:35:24.198Z,66.02
2018-11-25T11:37:54.786Z,65.29
2018-11-25T11:40:25.421Z,65.33
2018-11-25T11:42:56.433Z,65.60
2018-11-25T11:45:27.882Z,65.51
2018-11-25T11:47:58.466Z,65.57
2018-11-25T11:50:29.136Z,65.22
2018-11-25T11:52:59.891Z,64.75
2018-11-25T11:55:30.484Z,64.64
2018-11-25T11:58:01.345Z,64.51
2018-11-25T12:00:32.670Z,64.88
2018-11-25T12:03:03.348Z,65.08
2018-11-25T12:05:35.647Z,65.25
2018-11-25T12:08:07.177Z,65.37
2018-11-25T12:10:37.789Z,65.31
2018-11-25T12:13:08.416Z,64.98
2018-11-25T12:15:38.996Z,65.23
2018-11-25T12:18:09.756Z,64.66
2018-11-25T12:20:40.392Z,64.89
2018-11-25T12:23:11.101Z,64.96
2018-11-25T12:25:41.966Z,65.04
2018-11-25T12:28:12.815Z,64.66
2018-11-25T12:30:43.458Z,64.95
2018-11-25T12:33:14.157Z,65.71
2018-11-25T12:35:45.821Z,65.75
2018-11-25T12:38:16.436Z,64.93
2018-11-25T12:40:47.224Z,64.68
2018-11-25T12:43:18.018Z,64.44
2018-11-25T12:45:48.677Z,64.22
2018-11-25T12:48:19.467Z,63.87
2018-11-25T12:50:50.118Z,64.77
2018-11-25T12:53:21.248Z,64.71
2018-11-25T12:55:51.919Z,64.24
2018-11-25T12:58:23.279Z,63.34
2018-11-25T13:00:53.885Z,63.84
2018-11-25T13:03:24.649Z,63.39
2018-11-25T13:05:56.742Z,63.15
2018-11-25T13:08:27.457Z,63.73
2018-11-25T13:10:58.685Z,64.19
2018-11-25T13:13:29.506Z,64.37
2018-11-25T13:16:00.181Z,63.72
2018-11-25T13:18:31.038Z,63.42
2018-11-25T13:21:01.693Z,63.55
2018-11-25T13:23:32.546Z,62.70
2018-11-25T13:26:03.202Z,63.36
2018-11-25T13:28:33.851Z,63.13
2018-11-25T13:31:04.558Z,63.20
2018-11-25T13:33:35.378Z,62.45
2018-11-25T13:36:08.903Z,62.25
2018-11-25T13:38:39.889Z,63.20
2018-11-25T13:41:10.521Z,63.16
2018-11-25T13:43:41.228Z,63.26
2018-11-25T13:46:11.818Z,63.59
2018-11-25T13:48:42.974Z,63.70
2018-11-25T13:51:13.753Z,63.99
2018-11-25T13:53:44.626Z,63.84
2018-11-25T13:56:15.304Z,64.25
2018-11-25T13:58:45.970Z,65.42
2018-11-25T14:01:16.717Z,65.84
2018-11-25T14:03:47.418Z,66.53
2018-11-25T14:06:18.061Z,66.70
2018-11-25T14:08:53.453Z,67.10
2018-11-25T14:11:24.348Z,67.46
2018-11-25T14:13:54.940Z,67.87
2018-11-25T14:16:25.548Z,68.06
2018-11-25T14:18:56.265Z,68.42
2018-11-25T14:21:26.896Z,69.52
2018-11-25T14:23:57.597Z,69.36
2018-11-25T14:26:33.228Z,69.15
2018-11-25T14:29:05.340Z,70.30
2018-11-25T14:31:35.960Z,70.15
2018-11-25T14:34:06.961Z,70.80
2018-11-25T14:36:38.219Z,70.45
2018-11-25T14:39:12.578Z,71.62
2018-11-25T14:41:43.673Z,71.60
2018-11-25T14:44:14.626Z,71.44
2018-11-25T14:46:45.265Z,72.16
2018-11-25T14:49:16.006Z,72.61
2018-11-25T14:51:46.914Z,72.42
2018-11-25T14:54:18.089Z,72.28
2018-11-25T14:56:49.432Z,72.83
2018-11-25T14:59:20.177Z,73.33
2018-11-25T15:01:51.402Z,74.05
2018-11-25T15:04:22.190Z,74.70
2018-11-25T15:06:53.171Z,74.63
2018-11-25T15:09:24.796Z,75.55
2018-11-25T15:11:55.728Z,76.35
2018-11-25T15:14:26.596Z,77.46
2018-11-25T15:16:57.532Z,77.41
2018-11-25T15:19:28.330Z,77.13
2018-11-25T15:22:00.312Z,77.54
2018-11-25T15:24:31.189Z,78.94
2018-11-25T15:27:02.470Z,78.17
2018-11-25T15:29:33.363Z,79.20
2018-11-25T15:32:04.682Z,79.26
2018-11-25T15:34:35.584Z,79.20
2018-11-25T15:37:06.745Z,79.25
2018-11-25T15:39:37.861Z,79.58
2018-11-25T15:42:08.929Z,80.33
2018-11-25T15:44:39.670Z,79.85
2018-11-25T15:47:10.621Z,79.10
2018-11-25T15:49:41.552Z,80.09
2018-11-25T15:52:12.501Z,80.19
2018-11-25T15:54:43.523Z,78.94
2018-11-25T15:57:14.509Z,79.73
2018-11-25T15:59:45.552Z,79.07
2018-11-25T16:02:16.285Z,79.15
2018-11-25T16:04:47.968Z,79.34
2018-11-25T16:07:18.654Z,79.39
2018-11-25T16:09:49.509Z,79.66
2018-11-25T16:12:20.215Z,79.56
2018-11-25T16:14:51.027Z,80.01
2018-11-25T16:17:22.022Z,78.73
2018-11-25T16:19:52.908Z,79.40
2018-11-25T16:22:23.815Z,78.60
2018-11-25T16:24:55.236Z,79.04
2018-11-25T16:27:26.133Z,79.25
2018-11-25T16:29:57.804Z,77.97
2018-11-25T16:32:29.188Z,78.34
2018-11-25T16:34:59.853Z,79.19
2018-11-25T16:37:30.461Z,78.58
2018-11-25T16:40:01.918Z,78.75
2018-11-25T16:42:32.567Z,78.10
2018-11-25T16:45:03.254Z,77.61
2018-11-25T16:47:34.501Z,77.79
2018-11-25T16:50:07.607Z,78.29
2018-11-25T16:52:38.831Z,77.24
2018-11-25T16:55:11.505Z,77.96
2018-11-25T16:57:43.252Z,77.68
2018-11-25T17:00:19.624Z,78.16
2018-11-25T17:02:50.308Z,77.88
2018-11-25T17:05:27.818Z,78.35
2018-11-25T17:08:08.080Z,79.35
2018-11-25T17:10:39.583Z,79.33
2018-11-25T17:13:10.779Z,78.63
2018-11-25T17:15:42.063Z,79.13
2018-11-25T17:18:13.141Z,78.21
2018-11-25T17:20:43.797Z,78.12
2018-11-25T17:23:14.751Z,78.77
2018-11-25T17:25:45.538Z,78.12
2018-11-25T17:28:16.145Z,78.60
2018-11-25T17:30:47.126Z,78.05
2018-11-25T17:33:17.719Z,77.99
2018-11-25T17:35:48.344Z,78.06
2018-11-25T17:38:18.983Z,78.05
2018-11-25T17:40:49.656Z,77.36
2018-11-25T17:43:22.785Z,78.02
2018-11-25T17:45:53.696Z,78.43
2018-11-25T17:48:24.420Z,77.99
2018-11-25T17:50:55.462Z,77.31
2018-11-25T17:53:26.313Z,77.12
2018-11-25T17:55:57.023Z,77.83
2018-11-25T17:58:27.790Z,77.19
2018-11-25T18:01:00.884Z,77.29
2018-11-25T18:03:33.448Z,78.52
2018-11-25T18:06:04.066Z,77.99
2018-11-25T18:08:34.696Z,78.21
2018-11-25T18:11:06.308Z,78.37
2018-11-25T18:13:41.393Z,77.65
2018-11-25T18:16:13.700Z,77.36
2018-11-25T18:18:53.948Z,77.75
2018-11-25T18:21:26.870Z,77.94
2018-11-25T18:23:57.836Z,77.53
2018-11-25T18:26:28.762Z,77.87
2018-11-25T18:28:59.488Z,77.50
2018-11-25T18:31:30.497Z,77.49
2018-11-25T18:34:01.118Z,77.46
2018-11-25T18:36:32.348Z,77.50
2018-11-25T18:39:03.160Z,77.71
2018-11-25T18:41:33.782Z,78.65
2018-11-25T18:44:04.642Z,78.49
2018-11-25T18:46:35.332Z,77.87
2018-11-25T18:49:09.690Z,78.52
2018-11-25T18:51:40.464Z,77.76
2018-11-25T18:54:11.120Z,77.59
2018-11-25T18:56:41.869Z,76.91
2018-11-25T18:59:12.253Z,76.74
2018-11-25T19:01:56.558Z,77.93
2018-11-25T19:04:26.885Z,76.53
2018-11-25T19:06:58.356Z,76.89
2018-11-25T19:09:28.824Z,77.18
2018-11-25T19:12:00.077Z,77.64
2018-11-25T19:14:31.201Z,76.43
2018-11-25T19:17:01.941Z,77.42
2018-11-25T19:19:32.821Z,76.88
2018-11-25T19:22:03.873Z,76.83
2018-11-25T19:24:34.841Z,76.99
2018-11-25T19:27:05.900Z,76.38
2018-11-25T19:29:36.512Z,76.40
2018-11-25T19:32:09.666Z,76.03
2018-11-25T19:34:40.301Z,76.20
2018-11-25T19:37:10.957Z,75.95
2018-11-25T19:39:42.175Z,75.96
2018-11-25T19:42:13.711Z,77.06
2018-11-25T19:44:44.441Z,76.51
2018-11-25T19:47:25.100Z,76.78
2018-11-25T19:49:56.273Z,76.07
2018-11-25T19:52:27.332Z,77.07
2018-11-25T19:54:58.109Z,77.40
2018-11-25T19:57:29.175Z,76.88
2018-11-25T20:00:00.179Z,76.51
2018-11-25T20:02:32.059Z,77.23
2018-11-25T20:05:02.811Z,76.67
2018-11-25T20:07:33.567Z,77.06
2018-11-25T20:10:04.612Z,77.38
2018-11-25T20:12:43.663Z,77.47
2018-11-25T20:15:16.418Z,77.50
2018-11-25T20:17:54.034Z,77.23
2018-11-25T20:20:23.298Z,77.60
2018-11-25T20:22:54.883Z,77.13
2018-11-25T20:25:25.729Z,77.00
2018-11-25T20:27:57.080Z,76.76
2018-11-25T20:30:31.457Z,76.43
2018-11-25T20:33:07.310Z,77.43
2018-11-25T20:35:37.829Z,76.12
2018-11-25T20:38:14.104Z,76.96
2018-11-25T20:40:44.921Z,77.75
2018-11-25T20:43:16.945Z,77.35
2018-11-25T20:45:52.782Z,76.53
2018-11-25T20:48:23.941Z,77.31
2018-11-25T20:50:55.073Z,77.54
2018-11-25T20:53:31.182Z,77.54
2018-11-25T20:56:02.154Z,76.84
2018-11-25T20:58:33.505Z,77.72
2018-11-25T21:01:04.389Z,77.02
2018-11-25T21:03:35.305Z,77.21
2018-11-25T21:06:06.805Z,76.51
2018-11-25T21:08:37.763Z,77.71
2018-11-25T21:11:08.752Z,76.75
2018-11-25T21:13:39.452Z,76.58
2018-11-25T21:16:10.132Z,77.58
2018-11-25T21:18:41.081Z,77.06
2018-11-25T21:21:13.274Z,77.05
2018-11-25T21:23:44.296Z,77.90
2018-11-25T21:26:15.285Z,77.23
2018-11-25T21:28:46.051Z,77.68
2018-11-25T21:31:17.260Z,77.50
2018-11-25T21:33:48.540Z,77.90
2018-11-25T21:36:19.643Z,77.32
2018-11-25T21:38:50.389Z,78.31
2018-11-25T21:41:21.448Z,77.94
2018-11-25T21:43:54.326Z,77.71
2018-11-25T21:46:24.946Z,77.14
2018-11-25T21:48:55.689Z,78.41
2018-11-25T21:51:26.512Z,78.46
2018-11-25T21:53:57.604Z,77.99
2018-11-25T21:56:28.495Z,78.18
2018-11-25T21:58:59.570Z,77.39
2018-11-25T22:01:30.164Z,77.95
2018-11-25T22:04:01.212Z,78.38
2018-11-25T22:06:32.537Z,78.33
2018-11-25T22:09:04.401Z,78.25
2018-11-25T22:11:35.507Z,78.41
2018-11-25T22:14:06.743Z,78.03
2018-11-25T22:16:37.816Z,79.31
2018-11-25T22:19:09.073Z,79.32
2018-11-25T22:21:39.928Z,78.40
2018-11-25T22:24:10.848Z,78.61
2018-11-25T22:26:41.881Z,78.37
2018-11-25T22:29:12.841Z,78.14
2018-11-25T22:31:43.791Z,78.87
2018-11-25T22:34:14.501Z,78.20
2018-11-25T22:36:45.507Z,77.83
2018-11-25T22:39:16.392Z,77.87
2018-11-25T22:41:47.337Z,77.87
2018-11-25T22:44:17.969Z,78.54
2018-11-25T22:46:48.876Z,79.05
2018-11-25T22:49:19.881Z,79.05
2018-11-25T22:51:51.465Z,78.61
2018-11-25T22:54:22.110Z,78.86
2018-11-25T22:56:53.057Z,78.85
2018-11-25T22:59:24.060Z,78.53
2018-11-25T23:01:55.275Z,78.98
2018-11-25T23:04:44.153Z,78.69
2018-11-25T23:07:15.022Z,78.90
2018-11-25T23:09:45.656Z,78.75
2018-11-25T23:12:16.927Z,78.46
2018-11-25T23:14:47.549Z,78.38
2018-11-25T23:17:18.466Z,78.38
2018-11-25T23:19:49.291Z,78.30
2018-11-25T23:22:20.257Z,77.73
2018-11-25T23:24:51.784Z,78.23
2018-11-25T23:27:22.421Z,78.19
2018-11-25T23:29:53.020Z,78.54
2018-11-25T23:32:24.010Z,78.75
2018-11-25T23:34:54.909Z,78.23
2018-11-25T23:37:25.576Z,77.62
2018-11-25T23:39:57.280Z,78.85
2018-11-25T23:42:27.836Z,78.31
2018-11-25T23:44:58.489Z,79.64
2018-11-25T23:47:29.058Z,79.22
2018-11-25T23:50:00.056Z,79.49
2018-11-25T23:52:30.665Z,78.61
2018-11-25T23:55:01.518Z,78.45
2018-11-25T23:57:32.748Z,79.42
